Time;durP1;ratioP1;P1;durP2;ratioP2;P2;SDS_P1;SDS_P2;PMS_P1;PMS_P2;Temp;Humidity;BMP_temperature;BMP_pressure;BME280_temperature;BME280_humidity;BME280_pressure;Samples;Min_cycle;Max_cycle;Signal;HPM_P1;HPM_P2
2022/06/30 00:02:21;;;;;;;1.80;1.52;;;20.20;89.00;;;;;;5001850;28;20052;-79
2022/06/30 00:04:48;;;;;;;2.83;2.30;;;20.20;89.10;;;;;;5019082;28;20049;-79
2022/06/30 00:07:14;;;;;;;2.28;1.80;;;20.20;89.40;;;;;;5021736;28;20448;-78
2022/06/30 00:09:40;;;;;;;4.15;1.85;;;20.10;89.70;;;;;;5017021;28;20060;-79
2022/06/30 00:12:07;;;;;;;3.83;2.55;;;20.10;90.00;;;;;;5004004;28;20033;-79
2022/06/30 00:14:34;;;;;;;5.32;4.63;;;20.10;90.10;;;;;;5015175;28;20040;-76
2022/06/30 00:17:00;;;;;;;5.80;5.13;;;20.00;90.30;;;;;;4997213;28;20059;-76
2022/06/30 00:19:27;;;;;;;4.68;4.15;;;20.00;90.50;;;;;;4998869;28;20048;-76
2022/06/30 00:21:53;;;;;;;5.57;4.90;;;20.00;90.70;;;;;;5001835;28;20574;-76
2022/06/30 00:24:19;;;;;;;6.68;3.67;;;20.00;90.80;;;;;;4999675;28;20033;-76
2022/06/30 00:26:46;;;;;;;3.17;2.88;;;20.00;91.00;;;;;;4999339;28;20465;-76
2022/06/30 00:29:12;;;;;;;3.10;2.53;;;20.00;91.10;;;;;;5017428;28;20040;-76
2022/06/30 00:31:39;;;;;;;2.97;2.60;;;20.00;91.20;;;;;;5014782;28;20036;-76
2022/06/30 00:34:05;;;;;;;4.78;2.88;;;20.00;91.40;;;;;;4989335;28;20036;-76
2022/06/30 00:36:31;;;;;;;3.33;3.03;;;19.90;91.50;;;;;;5004675;28;20048;-76
2022/06/30 00:38:58;;;;;;;3.50;3.15;;;19.90;91.70;;;;;;4988782;28;20044;-79
2022/06/30 00:41:24;;;;;;;7.68;6.63;;;19.90;91.80;;;;;;5006182;28;20052;-79
2022/06/30 00:43:51;;;;;;;5.75;5.15;;;19.90;91.90;;;;;;5024367;28;20044;-79
2022/06/30 00:46:17;;;;;;;5.07;4.47;;;19.90;92.10;;;;;;5007991;28;20051;-79
2022/06/30 00:48:44;;;;;;;3.90;3.60;;;19.90;92.30;;;;;;5022586;28;20041;-75
2022/06/30 00:51:11;;;;;;;5.03;3.28;;;19.90;92.50;;;;;;5039917;28;20495;-77
2022/06/30 00:53:41;;;;;;;4.75;2.95;;;19.90;92.60;;;;;;5006516;28;20049;-77
2022/06/30 00:56:09;;;;;;;3.53;3.20;;;19.90;92.70;;;;;;5025484;28;20056;-81
2022/06/30 00:58:39;;;;;;;6.30;3.33;;;19.80;92.90;;;;;;5041844;28;20033;-80
2022/06/30 01:01:11;;;;;;;3.90;3.50;;;19.80;93.10;;;;;;5012285;28;20460;-76
2022/06/30 01:03:39;;;;;;;5.90;4.80;;;19.90;93.50;;;;;;5040044;28;20029;-77
2022/06/30 01:06:06;;;;;;;3.97;3.63;;;19.90;93.60;;;;;;5041664;28;20048;-77
2022/06/30 01:08:33;;;;;;;3.15;2.78;;;19.90;93.80;;;;;;5036299;28;20052;-81
2022/06/30 01:13:49;;;;;;;3.33;3.03;;;20.00;94.10;;;;;;5035913;28;20087;-80
2022/06/30 01:16:19;;;;;;;4.43;4.00;;;20.00;94.20;;;;;;5024308;28;20438;-81
2022/06/30 01:18:46;;;;;;;4.68;3.90;;;20.00;94.30;;;;;;5025426;28;20044;-76
2022/06/30 01:21:12;;;;;;;4.55;3.42;;;20.00;94.40;;;;;;5024598;28;20029;-81
2022/06/30 01:23:39;;;;;;;3.75;2.92;;;19.90;94.60;;;;;;5039887;28;20032;-81
2022/06/30 01:26:05;;;;;;;2.55;2.35;;;19.90;94.70;;;;;;5021578;28;20039;-80
2022/06/30 01:28:32;;;;;;;2.25;2.05;;;19.90;94.80;;;;;;5005255;28;20049;-81
2022/06/30 01:30:58;;;;;;;4.55;4.15;;;19.90;94.80;;;;;;5033531;28;20041;-77
2022/06/30 01:33:25;;;;;;;4.93;3.17;;;19.90;95.10;;;;;;5001090;28;20040;-78
2022/06/30 01:35:53;;;;;;;3.88;3.13;;;19.90;95.30;;;;;;5005250;28;20029;-75
2022/06/30 01:38:19;;;;;;;5.15;3.67;;;19.80;95.50;;;;;;5021046;28;20033;-79
2022/06/30 01:40:46;;;;;;;4.97;3.35;;;19.80;95.70;;;;;;5015436;28;20060;-75
2022/06/30 01:43:13;;;;;;;3.53;3.22;;;19.80;95.80;;;;;;5019828;28;20020;-78
2022/06/30 01:45:41;;;;;;;3.92;3.28;;;19.70;96.10;;;;;;5036571;28;20033;-75
2022/06/30 01:48:09;;;;;;;4.20;3.60;;;19.70;96.20;;;;;;5036486;28;20605;-78
2022/06/30 01:50:35;;;;;;;4.90;4.50;;;19.60;96.50;;;;;;5006193;28;20041;-78
2022/06/30 01:53:02;;;;;;;4.10;3.70;;;19.50;96.70;;;;;;5022428;28;20485;-78
2022/06/30 01:55:29;;;;;;;3.78;3.17;;;19.50;96.90;;;;;;5035825;28;20021;-75
2022/06/30 01:57:56;;;;;;;3.92;3.47;;;19.50;97.00;;;;;;5001461;28;20024;-78
2022/06/30 02:00:25;;;;;;;4.80;3.72;;;19.50;97.20;;;;;;5000771;28;20048;-75
2022/06/30 02:02:53;;;;;;;4.47;4.03;;;19.50;97.40;;;;;;5018412;28;20523;-75
2022/06/30 02:05:20;;;;;;;3.67;3.38;;;19.40;97.70;;;;;;5034908;28;20020;-75
2022/06/30 02:07:47;;;;;;;3.50;3.17;;;19.40;97.90;;;;;;5001804;28;20025;-75
2022/06/30 02:10:17;;;;;;;4.05;3.28;;;19.30;98.00;;;;;;5034021;28;20606;-79
2022/06/30 02:12:47;;;;;;;3.67;3.38;;;19.30;98.20;;;;;;5018183;28;20049;-76
2022/06/30 02:15:19;;;;;;;5.05;4.00;;;19.30;98.30;;;;;;5034960;28;20380;-80
2022/06/30 02:17:48;;;;;;;4.72;3.90;;;19.20;98.40;;;;;;5013314;28;20025;-76
2022/06/30 02:20:18;;;;;;;3.72;3.42;;;19.20;98.60;;;;;;5005207;28;20036;-79
2022/06/30 02:22:44;;;;;;;5.75;3.92;;;19.20;98.80;;;;;;5021147;28;20797;-76
2022/06/30 02:25:11;;;;;;;5.97;4.43;;;19.20;98.90;;;;;;5021140;28;20035;-79
2022/06/30 02:27:37;;;;;;;4.68;4.18;;;19.20;99.20;;;;;;5004585;28;20025;-79
2022/06/30 02:30:06;;;;;;;5.82;4.07;;;19.10;99.30;;;;;;5018070;28;20048;-76
2022/06/30 02:32:33;;;;;;;4.35;3.42;;;19.10;99.50;;;;;;4998911;28;20040;-80
2022/06/30 02:34:59;;;;;;;4.07;3.75;;;19.00;99.60;;;;;;5021457;28;20029;-76
2022/06/30 02:37:26;;;;;;;14.65;13.15;;;19.00;99.80;;;;;;5021162;28;20044;-76
2022/06/30 02:39:52;;;;;;;10.93;9.82;;;19.00;99.90;;;;;;5002207;28;20418;-80
2022/06/30 02:42:19;;;;;;;8.32;7.47;;;19.00;99.90;;;;;;5039495;28;20139;-79
2022/06/30 02:44:45;;;;;;;11.52;10.43;;;18.90;99.90;;;;;;4988569;28;20045;-80
2022/06/30 02:47:12;;;;;;;8.85;7.95;;;18.90;99.90;;;;;;5019128;28;20916;-76
2022/06/30 02:49:39;;;;;;;8.02;7.03;;;18.90;99.90;;;;;;4999402;28;20036;-76
2022/06/30 02:52:06;;;;;;;6.32;5.72;;;18.80;99.90;;;;;;5035281;28;20028;-76
2022/06/30 02:54:34;;;;;;;5.53;4.82;;;18.80;99.90;;;;;;5019364;28;20495;-76
2022/06/30 02:57:09;;;;;;;6.40;4.97;;;18.80;99.90;;;;;;5034257;28;20041;-76
2022/06/30 02:59:35;;;;;;;6.18;4.35;;;18.80;99.90;;;;;;5002147;28;20060;-80
2022/06/30 03:02:02;;;;;;;4.40;4.00;;;18.70;99.90;;;;;;5004435;28;20040;-80
2022/06/30 03:04:29;;;;;;;5.22;4.40;;;18.70;99.90;;;;;;5036404;28;20044;-77
2022/06/30 03:06:55;;;;;;;4.90;4.50;;;18.70;99.90;;;;;;5034199;28;20040;-77
2022/06/30 03:09:23;;;;;;;6.97;5.55;;;18.60;99.90;;;;;;5016833;28;20049;-77
2022/06/30 03:11:54;;;;;;;7.25;4.05;;;18.60;99.90;;;;;;5020175;28;20362;-77
2022/06/30 03:14:20;;;;;;;4.93;3.83;;;18.60;99.90;;;;;;4986699;28;20056;-77
2022/06/30 03:16:47;;;;;;;5.43;4.93;;;18.60;99.90;;;;;;5017853;28;20879;-79
2022/06/30 03:19:15;;;;;;;4.80;4.13;;;18.50;99.90;;;;;;5016635;28;20045;-79
2022/06/30 03:21:41;;;;;;;5.57;4.72;;;18.50;99.90;;;;;;5018936;28;20686;-77
2022/06/30 03:24:11;;;;;;;4.97;4.50;;;18.50;99.90;;;;;;5034459;28;20380;-77
2022/06/30 03:26:39;;;;;;;6.15;5.53;;;18.40;99.90;;;;;;5019667;28;20380;-77
2022/06/30 03:29:07;;;;;;;5.25;4.70;;;18.40;99.90;;;;;;5032460;28;20040;-77
2022/06/30 03:31:37;;;;;;;5.82;4.75;;;18.40;99.90;;;;;;5033552;28;20044;-77
2022/06/30 03:34:05;;;;;;;5.20;4.80;;;18.50;99.90;;;;;;4983141;28;20063;-77
2022/06/30 03:36:34;;;;;;;5.47;4.97;;;18.40;99.90;;;;;;5017795;28;20527;-79
2022/06/30 03:39:00;;;;;;;4.47;4.07;;;18.40;99.90;;;;;;5002627;28;20049;-79
2022/06/30 03:41:27;;;;;;;4.97;4.50;;;18.40;99.90;;;;;;5002700;28;20392;-79
2022/06/30 03:43:53;;;;;;;5.18;4.75;;;18.40;99.90;;;;;;5001347;28;20040;-79
2022/06/30 03:46:20;;;;;;;4.63;4.22;;;18.40;99.90;;;;;;5000088;28;20040;-79
2022/06/30 03:48:46;;;;;;;6.43;3.95;;;18.40;99.90;;;;;;5001526;28;20029;-79
2022/06/30 03:51:12;;;;;;;7.38;5.75;;;18.40;99.90;;;;;;5031476;28;20420;-79
2022/06/30 03:53:39;;;;;;;5.82;5.25;;;18.40;99.90;;;;;;5033952;28;20028;-79
2022/06/30 03:56:06;;;;;;;5.80;5.28;;;18.40;99.90;;;;;;5002867;28;20060;-79
2022/06/30 03:58:34;;;;;;;5.57;5.07;;;18.40;99.90;;;;;;5000243;28;20042;-80
2022/06/30 04:01:00;;;;;;;5.93;5.32;;;18.40;99.90;;;;;;5017457;28;20045;-79
2022/06/30 04:03:27;;;;;;;5.53;5.03;;;18.50;99.90;;;;;;5032096;28;20029;-77
2022/06/30 04:05:53;;;;;;;7.03;5.63;;;18.50;99.90;;;;;;5018127;28;20024;-77
2022/06/30 04:08:20;;;;;;;5.95;5.35;;;18.50;99.90;;;;;;5002727;28;20040;-77
2022/06/30 04:10:46;;;;;;;6.53;5.88;;;18.50;99.90;;;;;;5036405;28;20404;-77
2022/06/30 04:13:13;;;;;;;6.88;6.18;;;18.50;99.90;;;;;;5003728;28;20041;-79
2022/06/30 04:15:39;;;;;;;6.45;5.85;;;18.60;99.90;;;;;;5024696;28;20036;-76
2022/06/30 04:18:06;;;;;;;7.43;6.72;;;18.60;99.90;;;;;;5020167;28;20488;-77
2022/06/30 04:20:32;;;;;;;6.15;5.60;;;18.70;99.90;;;;;;5002766;28;20047;-77
2022/06/30 04:22:58;;;;;;;6.63;6.03;;;18.80;99.90;;;;;;5036391;28;20617;-77
2022/06/30 04:25:25;;;;;;;6.45;5.85;;;18.80;99.90;;;;;;5021857;28;20041;-80
2022/06/30 04:27:53;;;;;;;7.28;6.57;;;18.90;99.90;;;;;;5022533;28;20045;-79
2022/06/30 04:33:19;;;;;;;8.40;7.60;;;19.00;99.90;;;;;;4984666;28;20048;-76
2022/06/30 04:35:45;;;;;;;8.93;8.02;;;19.10;99.90;;;;;;5021761;28;20029;-79
2022/06/30 04:38:12;;;;;;;8.82;8.02;;;19.20;99.90;;;;;;5007209;28;20048;-80
2022/06/30 04:43:23;;;;;;;7.40;6.70;;;19.40;99.90;;;;;;5027723;28;20028;-76
2022/06/30 04:45:50;;;;;;;9.65;8.13;;;19.50;99.90;;;;;;4996564;28;20411;-76
2022/06/30 04:48:16;;;;;;;8.98;8.18;;;19.60;99.90;;;;;;5016456;28;20025;-77
2022/06/30 04:50:42;;;;;;;9.68;8.68;;;19.80;99.90;;;;;;5015147;28;20033;-77
2022/06/30 04:53:09;;;;;;;9.85;8.95;;;19.90;99.90;;;;;;5018229;28;21707;-77
2022/06/30 04:55:35;;;;;;;10.25;9.25;;;20.10;99.90;;;;;;5019413;28;20502;-77
2022/06/30 04:58:02;;;;;;;9.13;8.23;;;20.20;99.90;;;;;;5035509;28;20044;-77
2022/06/30 05:00:29;;;;;;;8.57;7.78;;;20.30;99.90;;;;;;5002779;28;20480;-77
2022/06/30 05:02:56;;;;;;;9.43;8.52;;;20.50;99.90;;;;;;5001031;28;20459;-76
2022/06/30 05:05:22;;;;;;;9.30;8.50;;;20.60;99.90;;;;;;5025663;28;20036;-77
2022/06/30 05:07:49;;;;;;;9.65;8.75;;;20.70;99.90;;;;;;5004142;28;20037;-77
2022/06/30 05:10:15;;;;;;;10.15;9.15;;;20.90;99.90;;;;;;5015998;28;20508;-75
2022/06/30 05:12:41;;;;;;;8.70;7.90;;;21.00;99.90;;;;;;5000863;28;20484;-77
2022/06/30 05:15:08;;;;;;;10.68;9.43;;;21.10;99.90;;;;;;5004417;28;20041;-80
2022/06/30 05:17:35;;;;;;;10.43;9.43;;;21.20;99.90;;;;;;5023188;28;20408;-79
2022/06/30 05:20:03;;;;;;;10.40;9.40;;;21.40;99.90;;;;;;5017550;28;20037;-76
2022/06/30 05:22:29;;;;;;;9.80;8.80;;;21.50;99.90;;;;;;5049942;28;20036;-79
2022/06/30 05:27:45;;;;;;;9.75;8.85;;;21.70;99.90;;;;;;5008075;28;20033;-77
2022/06/30 05:30:11;;;;;;;10.00;9.10;;;21.90;99.90;;;;;;5035734;28;23425;-77
2022/06/30 05:32:38;;;;;;;11.68;10.13;;;22.00;99.90;;;;;;5002412;28;20037;-77
2022/06/30 05:35:06;;;;;;;10.45;9.35;;;22.10;99.90;;;;;;5020731;28;20048;-77
2022/06/30 05:37:32;;;;;;;9.93;9.13;;;22.30;99.90;;;;;;5038573;28;20032;-77
2022/06/30 05:39:58;;;;;;;11.13;10.07;;;22.40;99.90;;;;;;5000998;28;20527;-77
2022/06/30 05:42:25;;;;;;;12.45;11.35;;;22.50;99.90;;;;;;5036963;28;20499;-77
2022/06/30 05:44:51;;;;;;;11.18;10.02;;;22.60;99.90;;;;;;4996232;28;20045;-77
2022/06/30 05:47:18;;;;;;;9.95;9.05;;;22.70;99.90;;;;;;5000483;28;20522;-77
2022/06/30 05:49:44;;;;;;;10.85;9.85;;;22.80;99.90;;;;;;5013505;28;20037;-79
2022/06/30 05:52:11;;;;;;;10.20;9.18;;;23.00;99.90;;;;;;5020878;28;20036;-78
2022/06/30 05:54:38;;;;;;;10.13;9.23;;;23.10;99.90;;;;;;5016005;28;21256;-79
2022/06/30 05:57:05;;;;;;;11.60;10.50;;;23.20;99.90;;;;;;5037209;28;20033;-78
2022/06/30 05:59:34;;;;;;;10.48;9.57;;;23.40;99.90;;;;;;5001982;28;20040;-78
2022/06/30 06:02:06;;;;;;;10.80;9.80;;;23.50;99.90;;;;;;5035148;28;20633;-79
2022/06/30 06:04:36;;;;;;;12.00;10.75;;;23.80;99.90;;;;;;5035316;28;21274;-78
2022/06/30 06:07:03;;;;;;;10.50;9.30;;;24.10;99.90;;;;;;5036513;28;20045;-77
2022/06/30 06:09:30;;;;;;;11.35;10.32;;;24.50;99.90;;;;;;5000046;28;20036;-78
2022/06/30 06:11:58;;;;;;;9.38;8.52;;;24.70;99.90;;;;;;5019999;28;20080;-78
2022/06/30 06:14:25;;;;;;;9.35;8.45;;;24.90;99.90;;;;;;5034615;28;20394;-77
2022/06/30 06:16:52;;;;;;;11.15;10.10;;;25.00;99.90;;;;;;5036284;28;20029;-79
2022/06/30 06:19:19;;;;;;;11.38;10.35;;;25.10;99.90;;;;;;5032331;28;20807;-80
2022/06/30 06:21:46;;;;;;;10.80;9.70;;;25.30;99.90;;;;;;5031937;28;20044;-79
2022/06/30 06:24:12;;;;;;;13.73;9.35;;;25.40;99.90;;;;;;5037155;28;20029;-79
2022/06/30 06:26:39;;;;;;;11.93;9.50;;;25.60;99.90;;;;;;5018822;28;20055;-79
2022/06/30 06:29:06;;;;;;;10.32;9.32;;;25.80;99.70;;;;;;5015396;28;20080;-78
2022/06/30 06:31:39;;;;;;;9.55;8.63;;;26.30;98.80;;;;;;5034204;28;20029;-78
2022/06/30 06:34:07;;;;;;;12.35;7.97;;;26.50;98.10;;;;;;5018784;28;20449;-78
2022/06/30 06:36:35;;;;;;;11.15;8.95;;;26.60;97.80;;;;;;5011236;28;20048;-78
2022/06/30 06:39:05;;;;;;;9.38;8.48;;;26.60;97.30;;;;;;5045408;28;21049;-76
2022/06/30 06:41:33;;;;;;;10.15;8.38;;;26.60;97.20;;;;;;5048919;28;20032;-76
2022/06/30 06:44:01;;;;;;;9.77;8.38;;;26.50;96.90;;;;;;5038498;28;20029;-75
2022/06/30 06:46:28;;;;;;;9.25;8.27;;;26.50;96.80;;;;;;5038862;28;20009;-78
2022/06/30 06:48:58;;;;;;;26.88;24.20;;;26.40;96.40;;;;;;5038121;28;20033;-78
2022/06/30 06:51:25;;;;;;;19.77;17.77;;;26.30;96.50;;;;;;5030341;28;20008;-78
2022/06/30 06:53:51;;;;;;;12.80;11.60;;;26.30;96.20;;;;;;5015712;28;20040;-78
2022/06/30 06:56:18;;;;;;;11.02;9.98;;;26.40;96.10;;;;;;5037526;28;20044;-77
2022/06/30 06:58:45;;;;;;;21.70;19.50;;;26.50;95.80;;;;;;5032848;28;20376;-77
2022/06/30 07:01:11;;;;;;;11.38;10.27;;;26.60;95.60;;;;;;5033901;28;20033;-77
2022/06/30 07:03:38;;;;;;;8.45;7.60;;;26.70;95.50;;;;;;5016086;28;20040;-77
2022/06/30 07:06:05;;;;;;;6.63;6.03;;;26.70;95.00;;;;;;5032038;28;20028;-77
2022/06/30 07:08:32;;;;;;;5.82;5.05;;;26.90;94.70;;;;;;4999476;28;20021;-78
2022/06/30 07:10:59;;;;;;;6.13;5.47;;;27.00;94.40;;;;;;5012829;28;20029;-80
2022/06/30 07:13:27;;;;;;;6.50;4.32;;;27.00;93.80;;;;;;5029782;28;20029;-76
2022/06/30 07:15:53;;;;;;;7.10;6.40;;;27.10;93.50;;;;;;5015169;28;20048;-76
2022/06/30 07:18:20;;;;;;;5.50;3.90;;;27.00;92.90;;;;;;5024042;28;20028;-78
2022/06/30 07:20:48;;;;;;;6.30;5.70;;;27.00;92.90;;;;;;5012498;28;20703;-78
2022/06/30 07:23:15;;;;;;;6.45;5.63;;;27.10;92.70;;;;;;5028920;28;20049;-78
2022/06/30 07:25:41;;;;;;;8.38;7.45;;;27.20;92.70;;;;;;5017609;28;20029;-77
2022/06/30 07:28:08;;;;;;;14.50;13.10;;;27.20;92.50;;;;;;5018663;28;20045;-78
2022/06/30 07:30:34;;;;;;;10.27;9.27;;;27.30;92.50;;;;;;4999582;28;20060;-78
2022/06/30 07:33:01;;;;;;;9.45;8.43;;;27.40;92.40;;;;;;5017963;28;20488;-78
2022/06/30 07:35:28;;;;;;;8.05;7.15;;;27.40;91.80;;;;;;5016842;28;20069;-78
2022/06/30 07:37:54;;;;;;;6.13;5.53;;;27.40;91.80;;;;;;5002672;28;20052;-81
2022/06/30 07:40:21;;;;;;;6.68;6.05;;;27.40;91.90;;;;;;4995402;28;20591;-80
2022/06/30 07:42:48;;;;;;;9.93;9.05;;;27.60;91.80;;;;;;4997437;28;20044;-81
2022/06/30 07:45:14;;;;;;;11.68;7.60;;;27.70;91.60;;;;;;5015725;28;21315;-82
2022/06/30 07:47:46;;;;;;;9.73;7.35;;;27.70;91.50;;;;;;5012718;28;20021;-82
2022/06/30 07:50:14;;;;;;;8.88;6.60;;;27.80;91.50;;;;;;5013475;28;20380;-82
2022/06/30 07:52:40;;;;;;;6.15;5.65;;;27.90;91.40;;;;;;4999543;28;20555;-81
2022/06/30 07:55:07;;;;;;;10.15;6.82;;;28.10;91.30;;;;;;5015129;28;20632;-81
2022/06/30 07:57:37;;;;;;;7.18;6.47;;;28.20;91.10;;;;;;5016430;28;20029;-81
2022/06/30 08:00:08;;;;;;;7.38;6.63;;;28.30;90.90;;;;;;5029167;28;20029;-82
2022/06/30 08:02:41;;;;;;;9.75;8.05;;;28.40;90.80;;;;;;5032301;28;20080;-88
2022/06/30 08:05:08;;;;;;;6.20;5.07;;;28.50;90.70;;;;;;5014859;28;20448;-86
2022/06/30 08:07:37;;;;;;;8.10;6.43;;;28.60;90.70;;;;;;4997854;28;20461;-81
2022/06/30 08:10:06;;;;;;;8.18;5.95;;;28.60;90.50;;;;;;5029015;28;20028;-82
2022/06/30 08:12:33;;;;;;;10.40;7.03;;;28.70;90.30;;;;;;4996964;28;20041;-80
2022/06/30 08:15:03;;;;;;;7.18;6.20;;;28.80;90.20;;;;;;4981707;28;20456;-80
2022/06/30 08:17:31;;;;;;;8.85;5.60;;;28.80;89.60;;;;;;5015048;28;20678;-82
2022/06/30 08:19:59;;;;;;;7.75;6.93;;;28.70;89.00;;;;;;5013152;28;20026;-82
2022/06/30 08:22:26;;;;;;;7.05;6.35;;;28.70;88.60;;;;;;5015633;28;20041;-81
2022/06/30 08:24:58;;;;;;;8.40;7.10;;;28.80;88.50;;;;;;5000940;28;20480;-82
2022/06/30 08:27:25;;;;;;;6.82;6.15;;;28.80;88.20;;;;;;5034078;28;20465;-81
2022/06/30 08:29:52;;;;;;;10.27;7.78;;;28.80;87.70;;;;;;4982557;28;20499;-79
2022/06/30 08:32:19;;;;;;;4.88;3.58;;;28.80;87.10;;;;;;5014893;28;20040;-82
2022/06/30 08:34:45;;;;;;;7.10;4.72;;;28.70;87.40;;;;;;5012353;28;21779;-77
2022/06/30 08:37:14;;;;;;;26.80;20.92;;;28.80;87.70;;;;;;5034644;28;20636;-76
2022/06/30 08:42:27;;;;;;;9.65;7.68;;;29.00;87.70;;;;;;5016906;28;20187;-77
2022/06/30 08:47:41;;;;;;;7.40;6.15;;;29.10;87.80;;;;;;5031407;28;20044;-76
2022/06/30 08:50:09;;;;;;;7.55;6.90;;;29.20;87.80;;;;;;5027882;28;20025;-77
2022/06/30 08:52:52;;;;;;;9.77;7.63;;;29.40;87.90;;;;;;5015040;28;20040;-77
2022/06/30 08:55:28;;;;;;;9.77;8.80;;;29.50;88.00;;;;;;5033313;28;20043;-77
2022/06/30 08:58:07;;;;;;;8.57;6.75;;;29.60;87.50;;;;;;5036468;28;20043;-77
2022/06/30 09:00:38;;;;;;;9.30;6.93;;;29.50;87.40;;;;;;5049506;28;20051;-76
2022/06/30 09:03:05;;;;;;;13.33;11.93;;;29.50;87.30;;;;;;5017258;28;20318;-76
2022/06/30 09:05:32;;;;;;;10.52;9.45;;;29.50;87.00;;;;;;5035080;28;20279;-77
2022/06/30 09:07:59;;;;;;;5.75;4.93;;;29.40;86.70;;;;;;5036412;28;20036;-77
2022/06/30 09:10:25;;;;;;;3.42;2.45;;;29.20;86.70;;;;;;5034338;28;20025;-78
2022/06/30 09:13:03;;;;;;;3.95;2.25;;;29.20;86.20;;;;;;5003093;28;20539;-78
2022/06/30 09:15:32;;;;;;;6.50;3.03;;;29.20;85.00;;;;;;5036458;28;20035;-78
2022/06/30 09:18:00;;;;;;;5.15;1.58;;;29.30;84.10;;;;;;5034976;28;20488;-78
2022/06/30 09:20:39;;;;;;;4.35;1.65;;;29.30;83.10;;;;;;5001021;28;20509;-78
2022/06/30 09:23:23;;;;;;;4.90;1.60;;;29.50;82.60;;;;;;5018848;28;20022;-76
2022/06/30 09:25:52;;;;;;;3.70;1.40;;;29.60;81.30;;;;;;5005168;28;20032;-75
2022/06/30 09:28:39;;;;;;;3.63;1.10;;;29.60;80.10;;;;;;5003142;28;20041;-75
2022/06/30 09:31:05;;;;;;;2.45;0.73;;;29.60;79.70;;;;;;5017022;28;20036;-76
2022/06/30 09:33:36;;;;;;;2.67;1.05;;;29.60;79.00;;;;;;5018631;28;20040;-76
2022/06/30 09:36:26;;;;;;;4.43;0.93;;;29.80;79.30;;;;;;5036860;28;20029;-76
2022/06/30 09:39:08;;;;;;;4.38;1.90;;;29.90;77.80;;;;;;5020089;28;20030;-79
2022/06/30 09:41:38;;;;;;;3.22;1.00;;;29.90;76.70;;;;;;5022584;28;20029;-79
2022/06/30 09:44:06;;;;;;;4.60;1.52;;;29.80;77.10;;;;;;5005038;28;20048;-79
2022/06/30 09:46:36;;;;;;;3.90;0.80;;;29.90;77.10;;;;;;5039640;28;20400;-79
2022/06/30 09:49:05;;;;;;;2.05;0.60;;;30.10;77.10;;;;;;5019375;28;20373;-79
2022/06/30 09:51:40;;;;;;;3.15;1.05;;;30.30;76.80;;;;;;5020161;28;20060;-79
2022/06/30 09:54:10;;;;;;;5.20;1.38;;;30.40;75.90;;;;;;5036792;28;20040;-79
2022/06/30 09:56:38;;;;;;;3.55;1.35;;;30.50;75.00;;;;;;4991585;28;20037;-79
2022/06/30 09:59:06;;;;;;;2.53;0.88;;;30.40;74.90;;;;;;5037780;28;20033;-79
2022/06/30 10:01:53;;;;;;;1.45;0.57;;;30.40;75.40;;;;;;5006383;28;20382;-79
2022/06/30 10:04:19;;;;;;;2.53;0.70;;;30.60;74.80;;;;;;5038088;28;20047;-79
2022/06/30 10:06:46;;;;;;;4.85;0.73;;;30.70;74.60;;;;;;5021082;28;20026;-79
2022/06/30 10:09:17;;;;;;;2.55;0.75;;;30.80;74.50;;;;;;5019981;28;20381;-80
2022/06/30 10:11:55;;;;;;;3.30;0.75;;;30.90;74.50;;;;;;5037686;28;20123;-79
2022/06/30 10:14:28;;;;;;;2.25;0.55;;;31.00;74.30;;;;;;5038423;28;22831;-80
2022/06/30 10:17:01;;;;;;;3.42;0.70;;;31.10;74.00;;;;;;5038941;28;20039;-79
2022/06/30 10:19:28;;;;;;;2.55;0.57;;;31.10;73.00;;;;;;5006059;28;20041;-78
2022/06/30 10:21:58;;;;;;;3.13;0.70;;;31.20;72.30;;;;;;5037314;28;20511;-80
2022/06/30 10:24:30;;;;;;;5.47;0.50;;;31.10;71.50;;;;;;5019657;28;20044;-80
2022/06/30 10:27:12;;;;;;;1.80;0.60;;;31.20;71.80;;;;;;5038390;28;20024;-79
2022/06/30 10:30:00;;;;;;;7.78;5.35;;;31.40;71.30;;;;;;5036083;28;20052;-79
2022/06/30 10:32:45;;;;;;;8.85;8.02;;;31.60;70.40;;;;;;5036006;28;20653;-80
2022/06/30 10:35:36;;;;;;;6.85;2.78;;;31.70;69.70;;;;;;5034375;28;20371;-80
2022/06/30 10:38:27;;;;;;;1.90;0.80;;;31.80;69.60;;;;;;5034376;28;20044;-81
2022/06/30 10:41:18;;;;;;;2.87;0.67;;;31.90;69.10;;;;;;5030688;28;20508;-79
2022/06/30 10:44:03;;;;;;;3.80;0.90;;;32.10;68.80;;;;;;5016483;28;20279;-80
2022/06/30 10:46:56;;;;;;;2.17;0.50;;;32.20;67.70;;;;;;5032754;28;20033;-80
2022/06/30 10:49:52;;;;;;;1.90;0.70;;;32.20;68.00;;;;;;5031399;28;20029;-81
2022/06/30 10:52:20;;;;;;;5.93;2.55;;;32.30;68.00;;;;;;5034069;28;20147;-80
2022/06/30 10:55:01;;;;;;;4.38;1.70;;;32.40;67.50;;;;;;5013775;28;20361;-79
2022/06/30 10:58:04;;;;;;;6.65;5.32;;;32.60;68.00;;;;;;5031520;28;20037;-80
2022/06/30 11:00:47;;;;;;;4.10;1.08;;;32.70;65.90;;;;;;5013647;28;20380;-80
2022/06/30 11:03:34;;;;;;;3.78;0.73;;;32.80;66.00;;;;;;5018137;28;20131;-81
2022/06/30 11:06:06;;;;;;;3.83;0.68;;;33.10;65.20;;;;;;5016720;28;20032;-83
2022/06/30 11:08:35;;;;;;;;;;;33.40;65.00;;;;;;5001223;28;20034;-82
2022/06/30 11:11:20;;;;;;;4.40;0.60;;;33.80;64.50;;;;;;4998092;28;19927;-82
2022/06/30 11:13:52;;;;;;;2.25;0.50;;;34.10;64.10;;;;;;4998721;28;20033;-82
2022/06/30 11:16:19;;;;;;;;;;;34.30;62.60;;;;;;5000968;28;20521;-82
2022/06/30 11:18:48;;;;;;;2.67;0.82;;;34.60;62.50;;;;;;5015224;28;19924;-82
2022/06/30 11:21:15;;;;;;;2.55;0.57;;;34.90;62.20;;;;;;5014485;28;21111;-82
2022/06/30 11:23:46;;;;;;;2.97;0.90;;;35.00;61.50;;;;;;5015662;28;20044;-82
2022/06/30 11:29:02;;;;;;;2.90;0.75;;;35.40;60.90;;;;;;5030498;28;20040;-83
2022/06/30 11:31:36;;;;;;;2.55;0.50;;;35.50;59.40;;;;;;5015115;28;20032;-83
2022/06/30 11:34:10;;;;;;;2.83;0.65;;;35.30;59.50;;;;;;4983286;28;20044;-82
2022/06/30 11:36:39;;;;;;;3.53;0.70;;;35.10;58.60;;;;;;5031586;28;20040;-82
2022/06/30 11:39:08;;;;;;;3.13;0.55;;;35.10;57.30;;;;;;4996516;28;20526;-83
2022/06/30 11:41:55;;;;;;;2.17;0.50;;;35.00;57.90;;;;;;5014734;28;20048;-81
2022/06/30 11:44:38;;;;;;;2.58;0.60;;;35.30;58.00;;;;;;5030561;28;20025;-83
2022/06/30 11:47:10;;;;;;;1.75;0.55;;;35.70;58.20;;;;;;5013187;28;20051;-82
2022/06/30 11:49:44;;;;;;;1.45;0.50;;;36.00;57.20;;;;;;5027167;28;20025;-83
2022/06/30 11:52:15;;;;;;;3.03;1.00;;;36.30;56.80;;;;;;5015432;28;20063;-82
2022/06/30 11:55:02;;;;;;;1.63;0.60;;;36.40;55.40;;;;;;5000534;28;20035;-82
2022/06/30 11:57:50;;;;;;;2.72;0.50;;;36.70;55.40;;;;;;5031403;28;20045;-81
2022/06/30 12:00:25;;;;;;;4.45;0.60;;;36.80;54.10;;;;;;5029742;28;20493;-83
2022/06/30 12:02:56;;;;;;;2.22;0.52;;;37.00;52.90;;;;;;5014516;28;20041;-82
2022/06/30 12:05:27;;;;;;;2.10;0.40;;;37.10;53.10;;;;;;5031273;28;20071;-83
2022/06/30 12:07:55;;;;;;;;;;;37.50;53.00;;;;;;5013918;28;20468;-82
2022/06/30 12:10:24;;;;;;;2.90;0.70;;;37.80;52.40;;;;;;5024448;28;19917;-83
2022/06/30 12:12:50;;;;;;;2.28;0.60;;;38.00;52.00;;;;;;4996523;28;20029;-83
2022/06/30 12:15:18;;;;;;;2.53;0.60;;;38.00;52.40;;;;;;4997626;28;20407;-82
2022/06/30 12:17:56;;;;;;;1.77;0.50;;;38.00;51.90;;;;;;5027254;28;20032;-82
2022/06/30 12:20:30;;;;;;;3.45;0.82;;;38.10;52.10;;;;;;5028479;28;20040;-83
2022/06/30 12:23:02;;;;;;;2.65;0.80;;;38.30;51.70;;;;;;5030315;28;20119;-83
2022/06/30 12:25:30;;;;;;;1.95;0.73;;;38.50;50.80;;;;;;5016233;28;20033;-83
2022/06/30 12:27:58;;;;;;;3.30;0.55;;;38.70;51.40;;;;;;5031701;28;20040;-83
2022/06/30 12:30:36;;;;;;;3.22;0.80;;;38.90;50.50;;;;;;5015451;28;20040;-83
2022/06/30 12:33:09;;;;;;;;;;;39.20;49.80;;;;;;5035107;28;20421;-83
2022/06/30 12:35:38;;;;;;;1.65;0.60;;;39.40;49.30;;;;;;5054987;28;19914;-83
2022/06/30 12:38:13;;;;;;;3.33;0.70;;;39.60;48.60;;;;;;5032203;28;20037;-83
2022/06/30 12:40:41;;;;;;;2.90;0.60;;;39.70;47.90;;;;;;5037843;28;20056;-83
2022/06/30 12:43:14;;;;;;;3.15;0.73;;;39.50;47.60;;;;;;5041563;28;20029;-84
2022/06/30 12:45:52;;;;;;;2.45;0.60;;;39.30;47.80;;;;;;5041171;28;20025;-84
2022/06/30 12:48:55;;;;;;;2.83;0.80;;;39.60;47.40;;;;;;5040875;28;20388;-83
2022/06/30 12:51:46;;;;;;;2.95;0.70;;;39.90;47.30;;;;;;5040298;28;20342;-82
2022/06/30 12:54:23;;;;;;;3.45;0.40;;;40.30;46.30;;;;;;5024442;28;20021;-82
2022/06/30 12:56:52;;;;;;;2.70;0.57;;;40.70;46.10;;;;;;5042063;28;20377;-83
2022/06/30 12:59:20;;;;;;;1.70;0.50;;;40.70;46.40;;;;;;5020264;28;20032;-83
2022/06/30 13:01:54;;;;;;;2.03;0.60;;;40.90;45.90;;;;;;5008267;28;20037;-82
2022/06/30 13:04:31;;;;;;;4.97;0.65;;;41.10;45.10;;;;;;5041412;28;20021;-83
2022/06/30 13:07:01;;;;;;;3.28;0.50;;;41.30;45.00;;;;;;5007163;28;20099;-83
2022/06/30 13:09:32;;;;;;;2.92;0.60;;;41.70;44.60;;;;;;5023504;28;20044;-84
2022/06/30 13:12:01;;;;;;;2.78;0.55;;;41.90;43.40;;;;;;5010416;28;20051;-83
2022/06/30 13:14:31;;;;;;;2.45;0.60;;;41.80;43.30;;;;;;5005510;28;20040;-82
2022/06/30 13:17:00;;;;;;;2.17;0.55;;;41.70;43.70;;;;;;5027877;28;20391;-83
2022/06/30 13:19:27;;;;;;;2.15;0.50;;;41.40;43.90;;;;;;5037901;28;20610;-83